Time;durP1;ratioP1;P1;durP2;ratioP2;P2;SDS_P1;SDS_P2;PMS_P1;PMS_P2;Temp;Humidity;BMP_temperature;BMP_pressure;BME280_temperature;BME280_humidity;BME280_pressure;Samples;Min_cycle;Max_cycle;Signal;HPM_P1;HPM_P2
2020/12/02 00:00:54;;;;;;;18.87;14.77;;;4.40;99.90;;;;;;5073238;28;20440;-58
2020/12/02 00:03:53;;;;;;;19.87;15.37;;;4.30;99.90;;;;;;5073037;28;20562;-58
2020/12/02 00:06:20;;;;;;;17.17;14.43;;;4.50;99.90;;;;;;5066075;28;20198;-57
2020/12/02 00:09:09;;;;;;;17.67;14.10;;;4.40;99.90;;;;;;5081165;28;20427;-58
2020/12/02 00:11:34;;;;;;;20.60;15.23;;;4.60;99.90;;;;;;5073607;28;20400;-55
2020/12/02 00:14:06;;;;;;;22.57;16.97;;;4.70;99.90;;;;;;5073288;28;20600;-57
2020/12/02 00:16:32;;;;;;;18.17;14.90;;;4.70;99.90;;;;;;5072753;28;20209;-56
2020/12/02 00:18:59;;;;;;;18.80;14.27;;;4.80;99.90;;;;;;5071574;28;20453;-58
2020/12/02 00:21:28;;;;;;;17.67;14.03;;;4.80;99.90;;;;;;5073149;28;20478;-57
2020/12/02 00:23:54;;;;;;;22.63;16.23;;;4.80;99.90;;;;;;5073430;28;20907;-57
2020/12/02 00:26:22;;;;;;;19.67;14.73;;;4.70;99.90;;;;;;5070684;28;20440;-57
2020/12/02 00:28:48;;;;;;;19.30;14.90;;;4.40;99.90;;;;;;5073424;28;20404;-58
2020/12/02 00:31:14;;;;;;;24.03;17.30;;;4.20;99.90;;;;;;5072845;28;20400;-57
2020/12/02 00:33:40;;;;;;;22.20;17.03;;;4.30;99.90;;;;;;5072859;28;20443;-56
2020/12/02 00:36:06;;;;;;;21.13;16.73;;;4.40;99.90;;;;;;5073301;28;20454;-58
2020/12/02 00:38:32;;;;;;;22.37;17.40;;;4.40;99.90;;;;;;5073378;28;20181;-57
2020/12/02 00:40:57;;;;;;;21.43;16.53;;;4.40;99.90;;;;;;5072634;28;20205;-58
2020/12/02 00:43:25;;;;;;;18.40;14.50;;;4.50;99.90;;;;;;5072624;28;20231;-58
2020/12/02 00:45:54;;;;;;;19.53;15.00;;;4.30;99.90;;;;;;5072480;28;20211;-58
2020/12/02 00:48:22;;;;;;;21.07;17.10;;;4.30;99.90;;;;;;5072924;28;20430;-55
2020/12/02 00:50:48;;;;;;;22.77;16.23;;;4.40;99.90;;;;;;5072990;28;20401;-56
2020/12/02 00:53:23;;;;;;;24.20;18.63;;;4.50;99.90;;;;;;5072888;28;20507;-57
2020/12/02 00:55:49;;;;;;;22.70;16.93;;;4.10;99.90;;;;;;5076682;28;20765;-59
2020/12/02 00:58:33;;;;;;;21.37;16.73;;;4.00;99.90;;;;;;5077432;28;20400;-57
2020/12/02 01:01:03;;;;;;;21.17;16.00;;;4.20;99.90;;;;;;5076989;28;20432;-58
2020/12/02 01:03:30;;;;;;;23.57;17.90;;;4.20;99.90;;;;;;5077396;28;20935;-58
2020/12/02 01:05:58;;;;;;;19.20;15.13;;;4.20;99.90;;;;;;5076532;28;20428;-57
2020/12/02 01:08:33;;;;;;;24.90;17.83;;;4.20;99.90;;;;;;5076670;28;20400;-57
2020/12/02 01:11:02;;;;;;;25.83;17.73;;;4.10;99.90;;;;;;5076546;28;20395;-58
2020/12/02 01:13:31;;;;;;;22.50;18.33;;;4.00;99.90;;;;;;5076634;28;20911;-58
2020/12/02 01:15:57;;;;;;;22.50;16.57;;;4.20;99.90;;;;;;5076411;28;20952;-58
2020/12/02 01:18:25;;;;;;;24.93;19.00;;;4.30;99.90;;;;;;5076742;28;20412;-59
2020/12/02 01:21:14;;;;;;;27.60;20.60;;;4.20;99.90;;;;;;5076419;28;20424;-58
2020/12/02 01:23:43;;;;;;;21.50;16.33;;;4.30;99.90;;;;;;5076678;28;20408;-57
2020/12/02 01:26:09;;;;;;;24.93;19.83;;;4.40;99.90;;;;;;5076165;28;20435;-56
2020/12/02 01:28:37;;;;;;;21.20;17.10;;;4.40;99.90;;;;;;5075616;28;20923;-56
2020/12/02 01:31:04;;;;;;;24.77;18.47;;;4.40;99.90;;;;;;5076096;28;20896;-57
2020/12/02 01:33:30;;;;;;;22.23;15.63;;;4.30;99.90;;;;;;5074548;28;20400;-56
2020/12/02 01:35:56;;;;;;;20.50;15.37;;;4.40;99.90;;;;;;5076079;28;20842;-56
2020/12/02 01:38:30;;;;;;;19.60;15.00;;;4.20;99.90;;;;;;5075816;28;20173;-54
2020/12/02 01:40:56;;;;;;;19.20;16.03;;;4.40;99.90;;;;;;5076960;28;20158;-55
2020/12/02 01:43:22;;;;;;;26.97;20.03;;;4.50;99.90;;;;;;5076353;28;20432;-58
2020/12/02 01:45:55;;;;;;;20.77;16.40;;;4.40;99.90;;;;;;5076203;28;20503;-58
2020/12/02 01:49:00;;;;;;;21.47;17.67;;;4.40;99.90;;;;;;5076281;28;20164;-58
2020/12/02 01:51:51;;;;;;;22.37;17.47;;;4.60;99.90;;;;;;5076366;28;20772;-58
2020/12/02 01:54:27;;;;;;;19.03;15.07;;;4.60;99.90;;;;;;5075603;28;20420;-58
2020/12/02 01:57:04;;;;;;;18.33;14.67;;;4.40;99.90;;;;;;5075736;28;20420;-57
2020/12/02 01:59:32;;;;;;;23.33;17.63;;;4.30;99.90;;;;;;5076407;28;20380;-60
2020/12/02 02:02:13;;;;;;;22.73;18.53;;;4.30;99.90;;;;;;5090668;28;20508;-57
2020/12/02 02:04:55;;;;;;;21.83;16.83;;;4.20;99.90;;;;;;5095235;28;20415;-58
2020/12/02 02:07:25;;;;;;;19.43;15.37;;;4.20;99.90;;;;;;5095529;28;20883;-57
2020/12/02 02:09:59;;;;;;;23.13;17.33;;;4.30;99.90;;;;;;5075913;28;20780;-59
2020/12/02 02:12:36;;;;;;;21.20;17.40;;;4.20;99.90;;;;;;5075834;28;20385;-59
2020/12/02 02:15:28;;;;;;;19.13;16.00;;;4.20;99.90;;;;;;5074879;28;20437;-59
2020/12/02 02:17:59;;;;;;;18.93;15.57;;;4.30;99.90;;;;;;5076192;28;20450;-54
2020/12/02 02:20:31;;;;;;;22.43;16.60;;;4.50;99.90;;;;;;5074264;28;20435;-59
2020/12/02 02:22:56;;;;;;;19.20;15.00;;;4.40;99.90;;;;;;5074812;28;20451;-59
2020/12/02 02:25:22;;;;;;;15.97;13.77;;;4.40;99.90;;;;;;5075755;28;20928;-54
2020/12/02 02:27:49;;;;;;;19.37;15.60;;;4.30;99.90;;;;;;5075719;28;20165;-55
2020/12/02 02:30:16;;;;;;;21.93;17.30;;;4.20;99.90;;;;;;5080780;28;20230;-55
2020/12/02 02:32:44;;;;;;;17.97;15.30;;;4.30;99.90;;;;;;5087042;28;20958;-55
2020/12/02 02:35:10;;;;;;;22.00;16.37;;;4.30;99.90;;;;;;5095504;28;20490;-57
2020/12/02 02:37:36;;;;;;;20.93;15.27;;;4.30;99.90;;;;;;5095479;28;20402;-56
2020/12/02 02:40:04;;;;;;;17.60;14.23;;;4.40;99.90;;;;;;5095260;28;20435;-54
2020/12/02 02:42:35;;;;;;;19.40;15.60;;;4.40;99.90;;;;;;5095312;28;20942;-54
2020/12/02 02:45:05;;;;;;;18.93;14.70;;;4.20;99.90;;;;;;5094273;28;20494;-57
2020/12/02 02:47:30;;;;;;;21.27;16.40;;;4.00;99.90;;;;;;5074851;28;20456;-59
2020/12/02 02:49:56;;;;;;;19.07;17.03;;;4.10;99.90;;;;;;5074858;28;20408;-59
2020/12/02 02:52:22;;;;;;;25.07;17.07;;;4.00;99.90;;;;;;5075091;28;20177;-59
2020/12/02 02:54:47;;;;;;;20.50;16.77;;;4.00;99.90;;;;;;5074409;28;20173;-57
2020/12/02 02:57:13;;;;;;;21.27;15.73;;;4.00;99.90;;;;;;5074577;28;20200;-54
2020/12/02 02:59:39;;;;;;;18.60;15.00;;;4.10;99.90;;;;;;5074639;28;20531;-58
2020/12/02 03:02:05;;;;;;;19.53;15.80;;;4.40;99.90;;;;;;5074558;28;20440;-59
2020/12/02 03:04:33;;;;;;;23.80;16.43;;;4.60;99.90;;;;;;5074002;28;20180;-54
2020/12/02 03:07:00;;;;;;;18.63;15.80;;;4.80;99.90;;;;;;5074363;28;20964;-57
2020/12/02 03:09:25;;;;;;;19.17;14.90;;;4.80;99.90;;;;;;5074265;28;20495;-56
2020/12/02 03:11:55;;;;;;;16.30;13.97;;;4.90;99.90;;;;;;5074836;28;20451;-58
2020/12/02 03:14:21;;;;;;;18.27;14.80;;;5.00;99.90;;;;;;5074258;28;20181;-56
2020/12/02 03:16:55;;;;;;;17.00;14.10;;;5.00;99.90;;;;;;5074096;28;20786;-57
2020/12/02 03:19:24;;;;;;;18.37;15.40;;;4.60;99.90;;;;;;5073454;28;20926;-59
2020/12/02 03:21:52;;;;;;;18.77;15.77;;;4.40;99.90;;;;;;5073657;28;20471;-59
2020/12/02 03:24:19;;;;;;;22.87;16.93;;;4.10;99.90;;;;;;5074133;28;20404;-60
2020/12/02 03:26:47;;;;;;;21.73;17.10;;;4.00;99.90;;;;;;5073724;28;20845;-60
2020/12/02 03:29:13;;;;;;;28.53;20.03;;;4.00;99.90;;;;;;5075363;28;20748;-56
2020/12/02 03:31:39;;;;;;;19.07;15.70;;;4.00;99.90;;;;;;5075492;28;20408;-57
2020/12/02 03:34:11;;;;;;;16.83;14.40;;;4.10;99.90;;;;;;5075190;28;20174;-58
2020/12/02 03:36:37;;;;;;;20.30;16.57;;;4.30;99.90;;;;;;5074234;28;20417;-55
2020/12/02 03:39:04;;;;;;;17.60;15.33;;;4.40;99.90;;;;;;5073543;28;20415;-57
2020/12/02 03:41:30;;;;;;;17.17;14.97;;;4.50;99.90;;;;;;5073825;28;20448;-59
2020/12/02 03:43:55;;;;;;;19.00;14.40;;;4.70;99.90;;;;;;5073998;28;20417;-55
2020/12/02 03:46:21;;;;;;;18.13;15.33;;;4.80;99.90;;;;;;5073844;28;20280;-57
2020/12/02 03:48:47;;;;;;;20.80;14.50;;;4.80;99.90;;;;;;5073539;28;20185;-60
2020/12/02 03:51:12;;;;;;;18.67;15.20;;;4.90;99.90;;;;;;5073561;28;20173;-58
2020/12/02 03:53:38;;;;;;;17.37;13.77;;;4.90;99.90;;;;;;5073519;28;20165;-55
2020/12/02 03:56:03;;;;;;;18.17;13.70;;;4.80;99.90;;;;;;5073685;28;20189;-57
2020/12/02 03:58:29;;;;;;;17.30;14.20;;;4.70;99.90;;;;;;5073772;28;20170;-58
2020/12/02 04:00:55;;;;;;;17.03;14.40;;;4.70;99.90;;;;;;5073730;28;20170;-56
2020/12/02 04:03:20;;;;;;;23.83;16.20;;;4.70;99.90;;;;;;5073656;28;20163;-56
2020/12/02 04:05:46;;;;;;;19.17;14.77;;;4.40;99.90;;;;;;5091119;28;20185;-57
2020/12/02 04:08:12;;;;;;;17.13;14.63;;;4.50;99.90;;;;;;5093364;28;20508;-57
2020/12/02 04:10:37;;;;;;;17.77;14.27;;;4.70;99.90;;;;;;5093439;28;20268;-60
2020/12/02 04:13:03;;;;;;;20.20;16.23;;;4.60;99.90;;;;;;5084987;28;20300;-56
2020/12/02 04:15:29;;;;;;;17.20;14.50;;;4.50;99.90;;;;;;5073766;28;20197;-57
2020/12/02 04:17:54;;;;;;;19.77;15.33;;;4.60;99.90;;;;;;5072914;28;20174;-60
2020/12/02 04:20:21;;;;;;;21.03;15.60;;;4.60;99.90;;;;;;5072431;28;20196;-59
2020/12/02 04:22:52;;;;;;;20.53;16.50;;;4.80;99.90;;;;;;5072015;28;20229;-58
2020/12/02 04:25:19;;;;;;;16.90;14.83;;;5.00;99.90;;;;;;5073567;28;20515;-58
2020/12/02 04:27:45;;;;;;;20.50;15.00;;;5.00;99.90;;;;;;5072917;28;20487;-57
2020/12/02 04:30:12;;;;;;;17.27;14.63;;;5.00;99.90;;;;;;5072183;28;20496;-59
2020/12/02 04:32:38;;;;;;;16.90;13.97;;;5.00;99.90;;;;;;5073369;28;20170;-58
2020/12/02 04:35:05;;;;;;;19.33;15.80;;;5.00;99.90;;;;;;5073207;28;20404;-58
2020/12/02 04:37:32;;;;;;;16.70;13.83;;;5.10;99.90;;;;;;5073519;28;20637;-56
2020/12/02 04:39:59;;;;;;;19.13;15.17;;;5.10;99.90;;;;;;5073624;28;20404;-57
2020/12/02 04:42:30;;;;;;;20.00;15.50;;;5.10;99.90;;;;;;5073065;28;20443;-56
2020/12/02 04:44:58;;;;;;;17.50;14.37;;;5.10;99.90;;;;;;5071915;28;20412;-59
2020/12/02 04:47:35;;;;;;;15.00;12.80;;;5.00;99.90;;;;;;5073239;28;20556;-55
2020/12/02 04:50:12;;;;;;;20.50;15.97;;;4.70;99.90;;;;;;5072447;28;20434;-60
2020/12/02 04:52:40;;;;;;;16.87;14.77;;;4.70;99.90;;;;;;5072622;28;20907;-56
2020/12/02 04:55:05;;;;;;;17.40;15.37;;;4.80;99.90;;;;;;5072041;28;20433;-57
2020/12/02 04:57:31;;;;;;;17.70;14.10;;;4.60;99.90;;;;;;5072687;28;20404;-56
2020/12/02 04:59:57;;;;;;;18.47;14.30;;;4.70;99.90;;;;;;5072792;28;20204;-57
2020/12/02 05:02:28;;;;;;;18.07;14.67;;;4.90;99.90;;;;;;5072211;28;20190;-56
2020/12/02 05:04:59;;;;;;;17.30;14.43;;;5.10;99.90;;;;;;5072210;28;20190;-57
2020/12/02 05:07:27;;;;;;;17.83;14.30;;;5.00;99.90;;;;;;5073125;28;20380;-54
2020/12/02 05:09:59;;;;;;;18.80;13.93;;;4.90;99.90;;;;;;5073009;28;20487;-57
2020/12/02 05:12:31;;;;;;;20.00;16.03;;;5.00;99.90;;;;;;5072075;28;20406;-58
2020/12/02 05:15:27;;;;;;;17.13;14.63;;;4.90;99.90;;;;;;5073002;28;20404;-59
2020/12/02 05:18:15;;;;;;;19.30;16.03;;;5.00;99.90;;;;;;5072933;28;20759;-54
2020/12/02 05:20:42;;;;;;;19.70;14.13;;;4.80;99.90;;;;;;5071992;28;20807;-58
2020/12/02 05:23:19;;;;;;;19.80;14.33;;;4.70;99.90;;;;;;5078806;28;20463;-57
2020/12/02 05:25:45;;;;;;;18.03;13.27;;;4.50;99.90;;;;;;5085294;28;20486;-56
2020/12/02 05:28:11;;;;;;;20.63;16.43;;;4.20;99.90;;;;;;5092426;28;20395;-59
2020/12/02 05:30:37;;;;;;;21.53;17.13;;;4.10;99.90;;;;;;5092962;28;20391;-54
2020/12/02 05:33:23;;;;;;;20.40;16.53;;;4.10;99.90;;;;;;5092781;28;20653;-58
2020/12/02 05:35:57;;;;;;;20.90;16.00;;;4.30;99.90;;;;;;5092238;28;20771;-57
2020/12/02 05:38:35;;;;;;;21.93;16.90;;;4.40;99.90;;;;;;5093249;28;20391;-58
2020/12/02 05:41:04;;;;;;;23.07;16.63;;;4.40;99.90;;;;;;5094153;28;20375;-59
2020/12/02 05:44:14;;;;;;;17.70;14.00;;;4.60;99.90;;;;;;5096026;28;20396;-57
2020/12/02 05:46:45;;;;;;;18.03;15.10;;;4.80;99.90;;;;;;5087084;28;20488;-59
2020/12/02 05:49:16;;;;;;;16.70;14.20;;;4.70;99.90;;;;;;5096243;28;20422;-59
2020/12/02 05:51:42;;;;;;;15.50;12.70;;;4.80;99.90;;;;;;5096778;28;20388;-59
2020/12/02 05:54:16;;;;;;;17.17;12.97;;;5.00;99.90;;;;;;5089193;28;20561;-59
2020/12/02 05:56:44;;;;;;;15.70;13.53;;;5.00;99.90;;;;;;5074798;28;20186;-59
2020/12/02 05:59:10;;;;;;;21.27;15.60;;;4.80;99.90;;;;;;5087623;28;20456;-56
2020/12/02 06:01:35;;;;;;;15.80;13.80;;;4.90;99.90;;;;;;5096291;28;20955;-57
2020/12/02 06:04:02;;;;;;;16.07;12.87;;;5.00;99.90;;;;;;5095954;28;20186;-58
2020/12/02 06:06:31;;;;;;;15.53;13.50;;;4.80;99.90;;;;;;5095320;28;20521;-58
2020/12/02 06:08:57;;;;;;;14.43;12.77;;;4.90;99.90;;;;;;5094754;28;20399;-59
2020/12/02 06:11:29;;;;;;;19.33;14.93;;;5.10;99.90;;;;;;5095534;28;20399;-58
2020/12/02 06:13:59;;;;;;;17.20;14.47;;;5.10;99.90;;;;;;5095905;28;20399;-56
2020/12/02 06:16:24;;;;;;;16.53;14.20;;;5.20;99.90;;;;;;5095405;28;20427;-58
2020/12/02 06:18:50;;;;;;;17.60;14.43;;;5.20;99.90;;;;;;5095962;28;20400;-58
2020/12/02 06:21:40;;;;;;;14.73;13.13;;;5.10;99.90;;;;;;5095598;28;20567;-55
2020/12/02 06:24:07;;;;;;;20.20;15.47;;;5.00;99.90;;;;;;5095785;28;20431;-56
2020/12/02 06:26:37;;;;;;;17.53;14.60;;;5.00;99.90;;;;;;5095513;28;20438;-57
2020/12/02 06:29:04;;;;;;;15.13;12.40;;;5.10;99.90;;;;;;5095174;28;20404;-57
2020/12/02 06:31:31;;;;;;;17.10;13.87;;;5.10;99.90;;;;;;5095382;28;20460;-59
2020/12/02 06:34:01;;;;;;;18.07;14.10;;;5.10;99.90;;;;;;5095732;28;20404;-58
2020/12/02 06:36:29;;;;;;;18.50;15.20;;;5.00;99.90;;;;;;5095337;28;20427;-59
2020/12/02 06:39:22;;;;;;;14.43;12.33;;;4.80;99.90;;;;;;5095352;28;20406;-58
2020/12/02 06:41:48;;;;;;;16.83;13.13;;;5.00;99.90;;;;;;5095054;28;20434;-58
2020/12/02 06:44:13;;;;;;;19.30;14.60;;;5.10;99.90;;;;;;5095211;28;20399;-59
2020/12/02 06:46:48;;;;;;;20.70;14.90;;;5.20;99.90;;;;;;5096156;28;20264;-56
2020/12/02 06:49:15;;;;;;;17.83;13.83;;;5.20;99.90;;;;;;5095119;28;20521;-55
2020/12/02 06:51:56;;;;;;;19.60;13.77;;;5.00;99.90;;;;;;5094857;28;20751;-57
2020/12/02 06:54:23;;;;;;;20.63;15.50;;;4.90;99.90;;;;;;5095451;28;20411;-54
2020/12/02 06:56:55;;;;;;;21.73;15.70;;;5.00;99.90;;;;;;5094950;28;20423;-58
2020/12/02 06:59:20;;;;;;;24.23;16.70;;;5.10;99.90;;;;;;5095652;28;20423;-55
2020/12/02 07:01:49;;;;;;;19.40;14.30;;;5.20;99.90;;;;;;5094363;28;20475;-55
2020/12/02 07:04:21;;;;;;;20.37;15.33;;;5.20;99.90;;;;;;5096120;28;20168;-54
2020/12/02 07:06:58;;;;;;;18.17;13.60;;;5.00;99.90;;;;;;5095047;28;20480;-58
2020/12/02 07:09:25;;;;;;;17.53;12.90;;;5.10;99.90;;;;;;5094547;28;20440;-54
2020/12/02 07:12:01;;;;;;;26.13;16.73;;;5.00;99.90;;;;;;5094430;28;20430;-58
2020/12/02 07:14:33;;;;;;;22.97;15.63;;;4.80;99.90;;;;;;5095075;28;20482;-56
2020/12/02 07:17:01;;;;;;;20.40;15.17;;;4.90;99.90;;;;;;5095316;28;20416;-58
2020/12/02 07:19:32;;;;;;;17.63;14.80;;;4.70;99.90;;;;;;5076291;28;20842;-57
2020/12/02 07:22:02;;;;;;;23.80;15.60;;;4.60;99.90;;;;;;5074669;28;20531;-55
2020/12/02 07:24:37;;;;;;;21.13;14.17;;;4.60;99.90;;;;;;5075471;28;20380;-58
2020/12/02 07:27:04;;;;;;;21.63;15.17;;;4.70;99.90;;;;;;5073879;28;20423;-56
2020/12/02 07:29:30;;;;;;;26.20;16.50;;;4.70;99.90;;;;;;5073958;28;20439;-56
2020/12/02 07:32:05;;;;;;;24.63;14.37;;;4.70;99.90;;;;;;5074210;28;20444;-59
2020/12/02 07:34:32;;;;;;;22.60;14.87;;;4.70;99.90;;;;;;5074114;28;20416;-57
2020/12/02 07:37:09;;;;;;;22.73;16.73;;;4.60;99.90;;;;;;5074139;28;20424;-61
2020/12/02 07:39:34;;;;;;;22.30;15.43;;;4.70;99.90;;;;;;5074087;28;20741;-58
2020/12/02 07:42:22;;;;;;;20.27;14.40;;;4.90;99.90;;;;;;5073878;28;20460;-56
2020/12/02 07:44:56;;;;;;;19.27;14.00;;;5.00;99.90;;;;;;5073262;28;20392;-57
2020/12/02 07:47:21;;;;;;;20.43;14.70;;;5.00;99.90;;;;;;5073678;28;20531;-60
2020/12/02 07:50:04;;;;;;;21.50;17.13;;;4.80;99.90;;;;;;5073840;28;20450;-59
2020/12/02 07:52:37;;;;;;;20.37;14.93;;;4.80;99.90;;;;;;5073847;28;20166;-58
2020/12/02 07:55:04;;;;;;;20.33;14.97;;;4.70;99.90;;;;;;5074269;28;20385;-56
2020/12/02 07:57:30;;;;;;;23.40;15.90;;;4.80;99.90;;;;;;5073405;28;20411;-59
2020/12/02 08:00:33;;;;;;;21.33;15.40;;;4.90;99.90;;;;;;5073559;28;20768;-58
2020/12/02 08:02:59;;;;;;;19.60;14.93;;;5.00;99.90;;;;;;5094791;28;20222;-59
2020/12/02 08:05:31;;;;;;;20.10;14.73;;;4.70;99.90;;;;;;5093596;28;20443;-60
2020/12/02 08:08:00;;;;;;;20.13;15.13;;;4.60;99.90;;;;;;5093593;28;20142;-57
2020/12/02 08:10:29;;;;;;;22.10;16.90;;;4.70;99.90;;;;;;5090965;28;20394;-58
2020/12/02 08:12:55;;;;;;;26.87;16.17;;;4.70;99.90;;;;;;5072806;28;20400;-55
2020/12/02 08:15:21;;;;;;;22.80;16.33;;;4.70;99.90;;;;;;5073812;28;20483;-58
2020/12/02 08:18:05;;;;;;;24.77;17.07;;;4.70;99.90;;;;;;5080963;28;20823;-56
2020/12/02 08:20:34;;;;;;;17.60;13.90;;;4.90;99.90;;;;;;5092891;28;20185;-57
2020/12/02 08:23:11;;;;;;;24.70;16.60;;;4.80;99.90;;;;;;5081737;28;20504;-56
2020/12/02 08:25:52;;;;;;;21.70;16.40;;;4.60;99.90;;;;;;5072964;28;20506;-57
2020/12/02 08:28:23;;;;;;;22.60;16.40;;;4.40;99.90;;;;;;5072735;28;20455;-60
2020/12/02 08:31:00;;;;;;;23.60;16.30;;;4.20;99.90;;;;;;5073429;28;20442;-58
2020/12/02 08:33:26;;;;;;;23.17;15.70;;;4.30;99.90;;;;;;5072491;28;20765;-59
2020/12/02 08:35:52;;;;;;;25.70;16.43;;;4.30;99.90;;;;;;5073343;28;20437;-55
2020/12/02 08:38:29;;;;;;;18.10;13.90;;;4.50;99.90;;;;;;5073020;28;20313;-55
2020/12/02 08:40:58;;;;;;;21.30;15.57;;;4.60;99.90;;;;;;5073266;28;20411;-60
2020/12/02 08:43:40;;;;;;;24.97;16.13;;;4.50;99.90;;;;;;5071526;28;20558;-57
2020/12/02 08:46:15;;;;;;;22.20;14.57;;;4.60;99.90;;;;;;5073335;28;20431;-57
2020/12/02 08:48:42;;;;;;;18.93;14.87;;;4.60;99.90;;;;;;5072912;28;20764;-59
2020/12/02 08:51:12;;;;;;;21.27;15.50;;;4.40;99.90;;;;;;5072760;28;20402;-60
2020/12/02 08:53:39;;;;;;;20.80;15.60;;;4.40;99.90;;;;;;5072942;28;20667;-59
2020/12/02 08:56:12;;;;;;;20.77;15.20;;;4.50;99.90;;;;;;5073218;28;20417;-60
2020/12/02 08:58:38;;;;;;;23.20;15.90;;;4.40;99.90;;;;;;5073592;28;20861;-58
2020/12/02 09:01:03;;;;;;;20.87;14.87;;;4.40;99.90;;;;;;5072911;28;20404;-59
2020/12/02 09:03:29;;;;;;;21.67;14.67;;;4.60;99.90;;;;;;5074166;28;20170;-58
2020/12/02 09:05:54;;;;;;;23.53;14.93;;;4.80;99.90;;;;;;5075503;28;20193;-58
2020/12/02 09:08:20;;;;;;;20.80;14.07;;;4.70;99.90;;;;;;5073146;28;20174;-56
2020/12/02 09:10:45;;;;;;;22.83;14.27;;;4.70;99.90;;;;;;5073038;28;20220;-57
2020/12/02 09:13:12;;;;;;;19.13;14.07;;;4.90;99.90;;;;;;5072989;28;20166;-57
2020/12/02 09:15:38;;;;;;;20.33;14.70;;;5.00;99.90;;;;;;5074700;28;20235;-58
2020/12/02 09:18:03;;;;;;;21.80;15.53;;;4.70;99.90;;;;;;5076676;28;20412;-57
2020/12/02 09:20:29;;;;;;;20.23;15.43;;;4.60;99.90;;;;;;5076356;28;20182;-57
2020/12/02 09:22:54;;;;;;;21.43;14.33;;;4.70;99.90;;;;;;5076671;28;20270;-57
2020/12/02 09:25:20;;;;;;;21.30;15.60;;;4.50;99.90;;;;;;5077161;28;20190;-57
2020/12/02 09:27:46;;;;;;;20.37;13.70;;;4.60;99.90;;;;;;5076354;28;20166;-57
2020/12/02 09:30:12;;;;;;;20.50;14.50;;;4.50;99.90;;;;;;5076449;28;20162;-58
2020/12/02 09:32:38;;;;;;;18.07;13.13;;;4.50;99.90;;;;;;5076751;28;20174;-58
2020/12/02 09:35:07;;;;;;;18.90;13.73;;;4.40;99.90;;;;;;5076017;28;20868;-59
2020/12/02 09:37:33;;;;;;;19.63;14.07;;;4.50;99.90;;;;;;5076443;28;20216;-57
2020/12/02 09:39:59;;;;;;;16.43;11.77;;;4.60;99.90;;;;;;5074999;28;20493;-58
2020/12/02 09:43:06;;;;;;;16.00;12.53;;;4.80;99.90;;;;;;5076045;28;20794;-58
2020/12/02 09:45:46;;;;;;;18.83;13.00;;;4.80;99.90;;;;;;5075191;28;20427;-58
2020/12/02 09:48:17;;;;;;;15.80;11.93;;;4.80;99.90;;;;;;5075788;28;20377;-56
2020/12/02 09:50:43;;;;;;;18.97;13.50;;;5.00;99.90;;;;;;5075919;28;20388;-58
2020/12/02 09:53:20;;;;;;;14.80;10.70;;;5.10;99.90;;;;;;5075207;28;20958;-57
2020/12/02 09:55:47;;;;;;;16.00;11.40;;;5.10;99.90;;;;;;5075667;28;20196;-60
2020/12/02 09:58:13;;;;;;;19.17;12.53;;;5.10;99.90;;;;;;5075808;28;20407;-55
2020/12/02 10:00:39;;;;;;;15.40;11.03;;;5.00;99.90;;;;;;5075549;28;20411;-57
2020/12/02 10:03:33;;;;;;;14.90;10.77;;;4.90;99.90;;;;;;5075286;28;20444;-58
2020/12/02 10:06:03;;;;;;;14.67;10.77;;;4.70;99.90;;;;;;5075900;28;20185;-58
2020/12/02 10:09:01;;;;;;;17.57;10.80;;;4.60;99.90;;;;;;5091071;28;20446;-58
2020/12/02 10:11:45;;;;;;;15.27;11.43;;;4.60;99.90;;;;;;5095950;28;20392;-57
2020/12/02 10:14:51;;;;;;;17.60;12.20;;;4.90;99.90;;;;;;5091640;28;21116;-59
2020/12/02 10:17:39;;;;;;;16.60;12.30;;;4.90;99.90;;;;;;5074666;28;20523;-58
2020/12/02 10:20:26;;;;;;;17.07;13.00;;;5.10;99.90;;;;;;5075215;28;20427;-60
2020/12/02 10:23:07;;;;;;;16.03;11.20;;;5.10;99.90;;;;;;5075675;28;20489;-57
2020/12/02 10:25:43;;;;;;;18.20;12.87;;;5.00;99.90;;;;;;5075226;28;20412;-56
2020/12/02 10:28:16;;;;;;;19.50;14.27;;;4.80;99.90;;;;;;5074821;28;20384;-59
2020/12/02 10:31:19;;;;;;;19.30;14.33;;;4.80;99.90;;;;;;5074563;28;20385;-58
2020/12/02 10:34:06;;;;;;;23.27;16.37;;;4.70;99.90;;;;;;5040760;28;20422;-55
2020/12/02 10:36:36;;;;;;;21.67;16.50;;;4.60;99.90;;;;;;5075009;28;20428;-55
2020/12/02 10:39:06;;;;;;;23.37;16.20;;;4.70;99.90;;;;;;5075184;28;20436;-57
2020/12/02 10:41:43;;;;;;;24.50;16.80;;;4.70;99.90;;;;;;5074487;28;20509;-55
2020/12/02 10:44:11;;;;;;;23.67;17.17;;;4.90;99.90;;;;;;5076176;28;20408;-54
2020/12/02 10:47:03;;;;;;;26.13;18.00;;;4.80;99.90;;;;;;5075152;28;20412;-56
2020/12/02 10:49:31;;;;;;;26.77;17.37;;;4.90;99.90;;;;;;5073820;28;20407;-56
2020/12/02 10:51:59;;;;;;;22.97;18.10;;;4.80;99.90;;;;;;5075755;28;20445;-54
2020/12/02 10:54:35;;;;;;;26.67;17.93;;;4.60;99.90;;;;;;5075817;28;20419;-55
2020/12/02 10:57:08;;;;;;;23.60;16.40;;;4.60;99.90;;;;;;5074319;28;20496;-55
2020/12/02 10:59:34;;;;;;;25.27;17.67;;;4.60;99.90;;;;;;5074728;28;20912;-56
2020/12/02 11:02:00;;;;;;;25.00;17.07;;;4.60;99.90;;;;;;5075511;28;20451;-58
2020/12/02 11:04:25;;;;;;;26.47;17.80;;;4.60;99.90;;;;;;5075299;28;20163;-58
2020/12/02 11:06:57;;;;;;;26.07;16.07;;;4.60;99.90;;;;;;5075067;28;20420;-56
2020/12/02 11:09:53;;;;;;;24.03;16.80;;;4.70;99.90;;;;;;5084427;28;20174;-59
2020/12/02 11:12:49;;;;;;;23.77;16.73;;;4.50;99.90;;;;;;5073354;28;20496;-56
2020/12/02 11:15:39;;;;;;;31.23;18.90;;;4.60;99.90;;;;;;5040262;28;20911;-56
2020/12/02 11:18:22;;;;;;;28.53;18.07;;;4.40;99.90;;;;;;5075180;28;20450;-56
2020/12/02 11:21:00;;;;;;;23.90;17.00;;;4.30;99.90;;;;;;5074310;28;20533;-54
2020/12/02 11:23:51;;;;;;;26.73;17.07;;;4.60;99.90;;;;;;5074463;28;20439;-57
2020/12/02 11:26:19;;;;;;;21.83;15.30;;;4.40;99.90;;;;;;5073988;28;20428;-58
2020/12/02 11:28:46;;;;;;;24.23;16.13;;;4.20;99.90;;;;;;5073391;28;20453;-60
2020/12/02 11:31:39;;;;;;;20.80;15.17;;;4.20;99.90;;;;;;5073926;28;20412;-60
2020/12/02 11:34:21;;;;;;;21.50;14.20;;;4.30;99.90;;;;;;5074183;28;20396;-60
2020/12/02 11:37:13;;;;;;;23.63;15.50;;;4.40;99.90;;;;;;5074541;28;20427;-60
2020/12/02 11:40:12;;;;;;;24.50;14.87;;;4.30;99.90;;;;;;5074180;28;20388;-59
2020/12/02 11:43:02;;;;;;;22.50;16.20;;;4.10;99.90;;;;;;5073290;28;20815;-59
2020/12/02 11:45:37;;;;;;;24.80;15.63;;;4.30;99.90;;;;;;5073772;28;20796;-59
2020/12/02 11:48:21;;;;;;;22.67;15.60;;;4.10;99.90;;;;;;5074186;28;20392;-57
2020/12/02 11:51:11;;;;;;;24.70;15.93;;;4.10;99.90;;;;;;5073956;28;20502;-59
2020/12/02 11:53:42;;;;;;;24.43;16.80;;;4.50;99.90;;;;;;5074462;28;20726;-59
2020/12/02 11:56:29;;;;;;;25.83;18.20;;;4.40;99.90;;;;;;5073399;28;20515;-56
2020/12/02 11:59:06;;;;;;;25.10;17.47;;;4.50;99.90;;;;;;5073206;28;20430;-60
2020/12/02 12:01:47;;;;;;;23.77;16.57;;;4.70;99.90;;;;;;5073072;28;20803;-60
2020/12/02 12:04:31;;;;;;;25.50;16.57;;;4.60;99.90;;;;;;5073219;28;20768;-59
2020/12/02 12:07:21;;;;;;;26.20;17.03;;;4.70;99.90;;;;;;5095912;28;20844;-59
2020/12/02 12:10:08;;;;;;;23.90;16.27;;;4.50;99.90;;;;;;5052211;28;20411;-59
2020/12/02 12:13:06;;;;;;;25.23;15.50;;;4.20;99.90;;;;;;5093434;28;20425;-58
2020/12/02 12:15:37;;;;;;;28.63;16.97;;;3.90;99.90;;;;;;5093230;28;20434;-57
2020/12/02 12:18:37;;;;;;;26.53;17.10;;;4.10;99.90;;;;;;5093604;28;20420;-58
2020/12/02 12:21:24;;;;;;;24.30;18.17;;;4.30;99.90;;;;;;5066454;28;20788;-59
2020/12/02 12:23:59;;;;;;;26.73;18.40;;;4.50;99.90;;;;;;5093477;28;20868;-60
2020/12/02 12:26:30;;;;;;;25.80;18.23;;;4.30;99.90;;;;;;5093186;28;20423;-57
2020/12/02 12:28:56;;;;;;;27.60;17.93;;;4.10;99.90;;;;;;5080561;28;20488;-60
2020/12/02 12:31:31;;;;;;;28.70;18.63;;;3.90;99.90;;;;;;5073039;28;20408;-59
2020/12/02 12:34:19;;;;;;;26.00;17.23;;;3.90;99.90;;;;;;5073374;28;20169;-60
2020/12/02 12:36:48;;;;;;;29.53;19.07;;;4.10;99.90;;;;;;5073206;28;20831;-59
2020/12/02 12:39:34;;;;;;;29.27;17.57;;;4.10;99.90;;;;;;5073308;28;20408;-60
2020/12/02 12:42:00;;;;;;;24.30;15.53;;;4.20;99.90;;;;;;5072799;28;20839;-56
2020/12/02 12:44:33;;;;;;;25.67;16.67;;;4.10;99.90;;;;;;5073133;28;20408;-60
2020/12/02 12:47:02;;;;;;;32.50;18.07;;;4.10;99.90;;;;;;5072790;28;20424;-60
2020/12/02 12:49:30;;;;;;;29.37;17.03;;;4.20;99.90;;;;;;5073670;28;20400;-58
2020/12/02 12:51:57;;;;;;;30.20;18.27;;;4.40;99.90;;;;;;5077274;28;20882;-57
2020/12/02 12:54:23;;;;;;;27.77;18.20;;;4.30;99.90;;;;;;5075760;28;20419;-59
2020/12/02 12:56:52;;;;;;;24.83;15.63;;;4.30;99.90;;;;;;5077525;28;20931;-58
2020/12/02 12:59:19;;;;;;;28.03;16.60;;;4.30;99.90;;;;;;5077373;28;20177;-55
2020/12/02 13:01:48;;;;;;;26.30;16.80;;;4.50;99.90;;;;;;5077211;28;20935;-58